createdAt,value
2022-08-03T00:00:08.970Z,57.88
2022-08-03T00:03:06.356Z,59.87
2022-08-03T00:06:03.966Z,60.68
2022-08-03T00:08:53.190Z,64.77
2022-08-03T00:11:41.300Z,64.37
2022-08-03T00:14:29.203Z,63.31
2022-08-03T00:17:17.170Z,61.97
2022-08-03T00:20:05.801Z,61.46
2022-08-03T00:22:54.118Z,60.58
2022-08-03T00:25:42.167Z,58.28
2022-08-03T00:28:30.544Z,58.35
2022-08-03T00:31:19.756Z,58.82
2022-08-03T00:34:36.284Z,60.43
2022-08-03T00:37:41.736Z,64.74
2022-08-03T00:40:30.274Z,65.68
2022-08-03T00:43:18.310Z,64.11
2022-08-03T00:46:05.988Z,61.73
2022-08-03T00:48:54.327Z,61.15
2022-08-03T00:51:41.987Z,60.83
2022-08-03T00:54:30.731Z,59.95
2022-08-03T00:57:19.384Z,57.77
2022-08-03T01:00:10.468Z,57.64
2022-08-03T01:02:58.281Z,59.14
2022-08-03T01:05:52.301Z,60.84
2022-08-03T01:08:52.730Z,64.24
2022-08-03T01:12:04.293Z,65.89
2022-08-03T01:15:28.319Z,63.17
2022-08-03T01:18:43.005Z,61.15
2022-08-03T01:22:14.505Z,58.84
2022-08-03T01:25:30.571Z,57.51
2022-08-03T01:28:51.200Z,58.79
2022-08-03T01:32:58.898Z,60.32
2022-08-03T01:35:17.500Z,65.15
2022-08-03T01:38:22.172Z,65.48
2022-08-03T01:41:20.302Z,62.45
2022-08-03T01:44:29.201Z,60.64
2022-08-03T01:47:22.899Z,57.49
2022-08-03T01:50:12.575Z,57.36
2022-08-03T01:53:01.981Z,58.40
2022-08-03T01:55:54.344Z,59.45
2022-08-03T01:58:44.866Z,61.08
2022-08-03T02:02:29.184Z,64.55
2022-08-03T02:04:47.928Z,64.80
2022-08-03T02:07:37.689Z,62.96
2022-08-03T02:10:35.200Z,61.08
2022-08-03T02:13:25.495Z,57.70
2022-08-03T02:16:14.732Z,57.32
2022-08-03T02:19:06.811Z,59.90
2022-08-03T02:21:57.042Z,61.12
2022-08-03T02:24:51.069Z,63.50
2022-08-03T02:27:46.405Z,61.97
2022-08-03T02:30:39.466Z,61.54
2022-08-03T02:33:34.544Z,60.27
2022-08-03T02:36:31.489Z,57.33
2022-08-03T02:39:25.088Z,57.06
2022-08-03T02:42:15.813Z,59.85
2022-08-03T02:45:12.565Z,62.19
2022-08-03T02:48:04.325Z,61.46
2022-08-03T02:50:54.895Z,59.49
2022-08-03T02:53:45.321Z,58.64
2022-08-03T02:56:34.577Z,59.54
2022-08-03T02:59:23.643Z,61.47
2022-08-03T03:02:14.880Z,63.85
2022-08-03T03:05:55.823Z,62.63
2022-08-03T03:08:17.682Z,60.79
2022-08-03T03:11:09.048Z,58.65
2022-08-03T03:13:58.721Z,58.40
2022-08-03T03:16:51.837Z,61.30
2022-08-03T03:19:46.775Z,62.96
2022-08-03T03:22:36.408Z,61.88
2022-08-03T03:25:25.145Z,60.96
2022-08-03T03:28:13.144Z,58.49
2022-08-03T03:31:01.665Z,59.83
2022-08-03T03:33:49.899Z,60.05
2022-08-03T03:36:38.238Z,61.07
2022-08-03T03:39:26.120Z,63.69
2022-08-03T03:42:14.741Z,63.58
2022-08-03T03:45:08.489Z,61.88
2022-08-03T03:47:56.308Z,60.80
2022-08-03T03:50:45.844Z,57.74
2022-08-03T03:53:33.547Z,56.92
2022-08-03T03:56:21.475Z,57.72
2022-08-03T03:59:09.551Z,58.70
2022-08-03T04:01:59.126Z,60.06
2022-08-03T04:05:05.954Z,62.83
2022-08-03T04:08:19.984Z,63.27
2022-08-03T04:11:30.086Z,59.64
2022-08-03T04:14:37.767Z,56.75
2022-08-03T04:17:29.631Z,58.18
2022-08-03T04:20:21.684Z,57.93
2022-08-03T04:23:15.422Z,59.75
2022-08-03T04:26:09.789Z,60.96
2022-08-03T04:28:59.112Z,60.54
2022-08-03T04:31:48.808Z,60.64
2022-08-03T04:34:37.172Z,61.41
2022-08-03T04:37:48.069Z,62.83
2022-08-03T04:40:39.995Z,60.10
2022-08-03T04:43:29.604Z,56.71
2022-08-03T04:46:22.235Z,56.10
2022-08-03T04:49:10.542Z,57.21
2022-08-03T04:51:59.814Z,58.04
2022-08-03T04:54:50.525Z,58.81
2022-08-03T04:57:39.039Z,58.71
2022-08-03T05:00:27.484Z,56.62
2022-08-03T05:03:20.469Z,57.66
2022-08-03T05:06:13.096Z,57.52
2022-08-03T05:09:04.480Z,57.94
2022-08-03T05:11:53.739Z,58.00
2022-08-03T05:14:41.720Z,57.85
2022-08-03T05:17:29.750Z,57.48
2022-08-03T05:20:19.141Z,57.53
2022-08-03T05:23:07.210Z,57.34
2022-08-03T05:25:55.145Z,57.13
2022-08-03T05:28:50.898Z,56.60
2022-08-03T05:31:40.955Z,54.99
2022-08-03T05:34:29.322Z,55.15
2022-08-03T05:37:17.354Z,54.89
2022-08-03T05:40:06.358Z,54.53
2022-08-03T05:42:54.322Z,52.94
2022-08-03T05:45:42.288Z,53.20
2022-08-03T05:48:30.033Z,52.18
2022-08-03T05:51:18.311Z,51.79
2022-08-03T05:54:06.448Z,51.31
2022-08-03T05:56:54.394Z,50.75
2022-08-03T05:59:53.848Z,49.15
2022-08-03T06:02:46.663Z,47.71
2022-08-03T06:05:37.259Z,45.94
2022-08-03T06:08:31.438Z,44.43
2022-08-03T06:11:19.340Z,42.36
2022-08-03T06:14:07.271Z,39.66
2022-08-03T06:16:55.248Z,36.98
2022-08-03T06:19:43.263Z,34.73
2022-08-03T06:22:31.363Z,31.99
2022-08-03T06:25:21.171Z,30.42
2022-08-03T06:28:14.992Z,28.83
2022-08-03T06:31:11.642Z,27.73
2022-08-03T06:34:34.096Z,26.00
2022-08-03T06:37:07.731Z,24.32
2022-08-03T06:39:55.731Z,22.71
2022-08-03T06:42:44.366Z,21.70
2022-08-03T06:45:35.514Z,21.75
2022-08-03T06:48:27.897Z,22.11
2022-08-03T06:51:16.005Z,21.74
2022-08-03T06:54:05.075Z,20.06
2022-08-03T06:56:54.148Z,19.31
2022-08-03T07:00:10.364Z,19.38
2022-08-03T07:02:51.788Z,19.37
2022-08-03T07:05:46.800Z,18.71
2022-08-03T07:08:34.701Z,18.49
2022-08-03T07:11:24.385Z,17.62
2022-08-03T07:14:12.223Z,16.51
2022-08-03T07:17:00.423Z,16.32
2022-08-03T07:19:50.532Z,16.71
2022-08-03T07:22:39.229Z,15.66
2022-08-03T07:25:27.505Z,15.03
2022-08-03T07:28:15.450Z,15.73
2022-08-03T07:31:03.769Z,15.30
2022-08-03T07:33:51.465Z,15.40
2022-08-03T07:36:39.370Z,15.16
2022-08-03T07:39:27.376Z,14.86
2022-08-03T07:42:15.648Z,14.03
2022-08-03T07:45:04.567Z,14.41
2022-08-03T07:47:53.429Z,14.59
2022-08-03T07:50:42.202Z,14.76
2022-08-03T07:53:30.172Z,15.06
2022-08-03T07:56:18.049Z,15.31
2022-08-03T07:59:06.204Z,14.88
2022-08-03T08:01:56.840Z,14.72
2022-08-03T08:04:44.755Z,14.88
2022-08-03T08:07:32.936Z,14.95
2022-08-03T08:10:21.013Z,14.92
2022-08-03T08:13:08.797Z,14.44
2022-08-03T08:15:56.701Z,13.74
2022-08-03T08:18:44.516Z,13.94
2022-08-03T08:21:52.938Z,14.03
2022-08-03T08:24:40.899Z,14.20
2022-08-03T08:28:22.194Z,14.74
2022-08-03T08:30:41.785Z,14.94
2022-08-03T08:33:47.944Z,14.92
2022-08-03T08:36:38.185Z,15.48
2022-08-03T08:39:26.067Z,15.61
2022-08-03T08:42:15.789Z,15.81
2022-08-03T08:45:07.197Z,15.49
2022-08-03T08:48:01.023Z,15.31
2022-08-03T08:50:54.852Z,15.40
2022-08-03T08:53:48.068Z,15.77
2022-08-03T08:56:39.023Z,15.60
2022-08-03T08:59:27.425Z,15.46
2022-08-03T09:02:35.740Z,15.83
2022-08-03T09:05:36.236Z,16.62
2022-08-03T09:08:33.493Z,17.17
2022-08-03T09:11:57.685Z,17.37
2022-08-03T09:14:39.199Z,17.70
2022-08-03T09:17:41.409Z,17.81
2022-08-03T09:20:33.581Z,17.81
2022-08-03T09:23:59.596Z,17.73
2022-08-03T09:26:31.868Z,17.51
2022-08-03T09:29:21.992Z,17.54
2022-08-03T09:32:11.364Z,17.57
2022-08-03T09:35:05.382Z,17.49
2022-08-03T09:38:24.175Z,17.97
2022-08-03T09:41:19.830Z,18.58
2022-08-03T09:44:08.764Z,18.48
2022-08-03T09:47:16.991Z,18.81
2022-08-03T09:50:09.104Z,19.03
2022-08-03T09:53:02.271Z,18.75
2022-08-03T09:56:32.879Z,18.36
2022-08-03T09:59:02.329Z,17.98
2022-08-03T10:01:52.968Z,17.90
2022-08-03T10:04:53.059Z,18.33
2022-08-03T10:07:49.100Z,18.19
2022-08-03T10:10:44.429Z,18.40
2022-08-03T10:13:32.459Z,18.24
2022-08-03T10:16:25.586Z,18.81
2022-08-03T10:19:15.356Z,19.06
2022-08-03T10:22:12.476Z,18.76
2022-08-03T10:25:11.911Z,18.55
2022-08-03T10:28:04.624Z,18.55
2022-08-03T10:30:55.597Z,18.49
2022-08-03T10:33:51.813Z,18.35
2022-08-03T10:36:41.852Z,19.09
2022-08-03T10:39:30.987Z,19.19
2022-08-03T10:42:20.320Z,18.99
2022-08-03T10:45:26.929Z,18.75
2022-08-03T10:48:16.115Z,18.75
2022-08-03T10:51:05.059Z,18.22
2022-08-03T10:53:54.963Z,18.14
2022-08-03T10:57:13.396Z,18.08
2022-08-03T11:00:19.135Z,19.03
2022-08-03T11:03:14.899Z,19.44
2022-08-03T11:06:19.219Z,19.54
2022-08-03T11:09:10.175Z,19.38
2022-08-03T11:11:58.099Z,19.06
2022-08-03T11:14:48.425Z,18.67
2022-08-03T11:17:45.796Z,18.50
2022-08-03T11:20:55.419Z,18.84
2022-08-03T11:24:04.129Z,18.81
2022-08-03T11:27:20.027Z,18.59
2022-08-03T11:30:29.366Z,18.58
2022-08-03T11:33:31.375Z,19.21
2022-08-03T11:36:32.303Z,19.65
2022-08-03T11:39:20.527Z,20.13
2022-08-03T11:42:35.484Z,20.55
2022-08-03T11:45:23.306Z,20.86
2022-08-03T11:48:17.130Z,20.97
2022-08-03T11:51:08.312Z,21.31
2022-08-03T11:54:02.745Z,21.99
2022-08-03T11:56:51.168Z,22.70
2022-08-03T11:59:39.253Z,22.74
2022-08-03T12:02:27.325Z,22.57
2022-08-03T12:05:15.075Z,23.28
2022-08-03T12:08:06.736Z,23.72
2022-08-03T12:10:57.526Z,23.68
2022-08-03T12:14:45.747Z,24.73
2022-08-03T12:17:02.083Z,24.69
2022-08-03T12:19:50.021Z,25.77
2022-08-03T12:22:40.806Z,26.73
2022-08-03T12:25:39.465Z,27.80
2022-08-03T12:28:28.323Z,29.02
2022-08-03T12:31:26.146Z,29.03
2022-08-03T12:34:14.487Z,29.39
2022-08-03T12:37:22.301Z,29.78
2022-08-03T12:40:17.827Z,30.89
2022-08-03T12:43:13.554Z,30.93
2022-08-03T12:46:13.093Z,31.56
2022-08-03T12:49:09.767Z,31.84
2022-08-03T12:52:05.331Z,32.23
2022-08-03T12:54:56.901Z,33.16
2022-08-03T12:57:45.350Z,33.45
2022-08-03T13:00:33.715Z,33.55
2022-08-03T13:03:39.097Z,33.88
2022-08-03T13:06:29.841Z,33.76
2022-08-03T13:09:18.409Z,33.68
2022-08-03T13:12:12.089Z,33.60
2022-08-03T13:15:01.223Z,33.64
2022-08-03T13:17:49.344Z,33.70
2022-08-03T13:20:37.263Z,33.47
2022-08-03T13:23:25.398Z,33.13
2022-08-03T13:26:13.844Z,33.05
2022-08-03T13:29:01.772Z,32.97
2022-08-03T13:31:51.695Z,32.79
2022-08-03T13:34:40.269Z,33.46
2022-08-03T13:37:29.612Z,33.40
2022-08-03T13:40:17.959Z,33.69
2022-08-03T13:43:05.788Z,33.40
2022-08-03T13:45:57.782Z,33.84
2022-08-03T13:48:45.711Z,33.92
2022-08-03T13:51:34.827Z,33.92
2022-08-03T13:54:23.810Z,33.78
2022-08-03T13:58:02.971Z,33.55
2022-08-03T14:00:27.967Z,33.48
2022-08-03T14:03:17.449Z,33.66
2022-08-03T14:06:05.675Z,33.73
2022-08-03T14:08:55.888Z,33.82
2022-08-03T14:12:07.449Z,34.11
2022-08-03T14:14:56.998Z,34.22
2022-08-03T14:17:50.199Z,34.25
2022-08-03T14:20:50.136Z,34.36
2022-08-03T14:23:42.301Z,34.17
2022-08-03T14:26:30.845Z,33.97
2022-08-03T14:29:18.706Z,33.93
2022-08-03T14:32:09.717Z,33.82
2022-08-03T14:34:58.653Z,33.74
2022-08-03T14:37:46.534Z,33.63
2022-08-03T14:40:34.692Z,33.37
2022-08-03T14:43:22.946Z,32.88
2022-08-03T14:46:10.720Z,33.03
2022-08-03T14:50:28.637Z,33.09
2022-08-03T14:52:08.587Z,32.72
2022-08-03T14:54:56.778Z,32.77
2022-08-03T14:57:44.833Z,32.78
2022-08-03T15:00:34.402Z,32.90
2022-08-03T15:03:25.188Z,33.04
2022-08-03T15:06:13.609Z,33.12
2022-08-03T15:12:10.202Z,33.10
2022-08-03T15:14:58.019Z,33.20
2022-08-03T15:17:59.825Z,33.28
2022-08-03T15:20:50.940Z,33.27
2022-08-03T15:23:39.116Z,33.22
2022-08-03T15:26:36.461Z,33.33
2022-08-03T15:30:09.433Z,33.46
2022-08-03T15:32:37.130Z,33.40
2022-08-03T15:35:25.287Z,33.41
2022-08-03T15:38:13.783Z,33.49
2022-08-03T15:41:02.072Z,33.58
2022-08-03T15:43:54.172Z,33.46
2022-08-03T15:46:42.805Z,33.28
2022-08-03T15:49:30.829Z,33.20
2022-08-03T15:52:18.892Z,33.56
2022-08-03T15:55:08.144Z,33.96
2022-08-03T15:59:04.394Z,33.99
2022-08-03T16:01:19.110Z,33.96
2022-08-03T16:04:08.100Z,34.12
2022-08-03T16:06:56.259Z,34.82
2022-08-03T16:09:44.450Z,34.84
2022-08-03T16:12:33.998Z,35.08
2022-08-03T16:15:22.135Z,35.09
2022-08-03T16:18:12.507Z,34.95
2022-08-03T16:21:02.918Z,35.15
2022-08-03T16:23:52.171Z,35.37
2022-08-03T16:26:41.940Z,35.54
2022-08-03T16:29:33.677Z,35.73
2022-08-03T16:32:24.921Z,36.04
2022-08-03T16:35:19.662Z,36.31
2022-08-03T16:38:10.939Z,36.48
2022-08-03T16:41:00.221Z,36.97
2022-08-03T16:43:48.658Z,37.49
2022-08-03T16:46:37.397Z,37.71
2022-08-03T16:49:54.351Z,37.71
2022-08-03T16:52:39.670Z,37.63
2022-08-03T16:55:48.901Z,38.18
2022-08-03T16:58:44.375Z,38.54
2022-08-03T17:01:37.810Z,38.95
2022-08-03T17:04:27.473Z,39.37
2022-08-03T17:07:18.211Z,39.65
2022-08-03T17:10:09.866Z,39.91
2022-08-03T17:13:00.105Z,40.20
2022-08-03T17:16:01.573Z,40.65
2022-08-03T17:18:57.509Z,40.71
2022-08-03T17:22:04.201Z,40.92
2022-08-03T17:24:54.379Z,41.40
2022-08-03T17:28:48.435Z,42.11
2022-08-03T17:31:22.548Z,42.90
2022-08-03T17:34:26.273Z,43.80
2022-08-03T17:37:50.586Z,44.15
2022-08-03T17:40:29.207Z,44.98
2022-08-03T17:44:12.761Z,45.39
2022-08-03T17:46:29.748Z,45.46
2022-08-03T17:49:24.871Z,46.18
2022-08-03T17:52:21.668Z,47.13
2022-08-03T17:55:57.871Z,47.06
2022-08-03T17:58:55.596Z,48.15
2022-08-03T18:02:47.464Z,47.75
2022-08-03T18:06:10.347Z,48.30
2022-08-03T18:08:57.858Z,49.06
2022-08-03T18:11:55.462Z,49.51
2022-08-03T18:14:57.635Z,50.57
2022-08-03T18:17:55.654Z,52.47
2022-08-03T18:20:51.820Z,52.08
2022-08-03T18:23:39.941Z,53.60
2022-08-03T18:26:30.259Z,53.81
2022-08-03T18:29:22.889Z,55.33
2022-08-03T18:32:16.742Z,54.86
2022-08-03T18:35:07.647Z,54.79
2022-08-03T18:38:03.864Z,55.00
2022-08-03T18:41:00.302Z,56.01
2022-08-03T18:44:08.995Z,55.25
2022-08-03T18:47:23.495Z,54.89
2022-08-03T18:50:30.999Z,55.74
2022-08-03T18:54:04.102Z,56.11
2022-08-03T18:57:00.635Z,56.32
2022-08-03T19:00:14.864Z,56.30
2022-08-03T19:03:10.237Z,56.69
2022-08-03T19:06:15.870Z,57.34
2022-08-03T19:09:16.917Z,57.97
2022-08-03T19:12:39.836Z,58.48
2022-08-03T19:15:36.446Z,58.86
2022-08-03T19:18:32.779Z,59.50
2022-08-03T19:21:22.921Z,60.06
2022-08-03T19:24:13.847Z,62.14
2022-08-03T19:27:05.220Z,61.85
2022-08-03T19:30:19.966Z,56.91
2022-08-03T19:33:16.653Z,57.30
2022-08-03T19:36:10.897Z,58.60
2022-08-03T19:39:00.596Z,59.36
2022-08-03T19:41:52.393Z,60.03
2022-08-03T19:44:50.752Z,60.61
2022-08-03T19:47:56.063Z,62.09
2022-08-03T19:50:48.598Z,64.67
2022-08-03T19:53:44.980Z,62.40
2022-08-03T19:56:34.455Z,59.71
2022-08-03T19:59:26.390Z,57.83
2022-08-03T20:02:17.452Z,58.60
2022-08-03T20:05:15.965Z,59.52
2022-08-03T20:08:07.676Z,60.68
2022-08-03T20:10:59.848Z,62.32
2022-08-03T20:13:54.727Z,64.26
2022-08-03T20:16:45.134Z,62.31
2022-08-03T20:19:35.085Z,60.43
2022-08-03T20:22:34.085Z,58.85
2022-08-03T20:25:38.835Z,59.11
2022-08-03T20:28:50.631Z,60.05
2022-08-03T20:31:39.090Z,60.44
2022-08-03T20:34:27.041Z,63.16
2022-08-03T20:37:15.723Z,66.38
2022-08-03T20:40:07.724Z,64.18
2022-08-03T20:42:55.866Z,62.54
2022-08-03T20:48:54.112Z,58.79
2022-08-03T20:51:50.007Z,58.94
2022-08-03T20:54:41.579Z,59.50
2022-08-03T20:57:33.169Z,60.37
2022-08-03T21:00:21.960Z,60.54
2022-08-03T21:03:09.956Z,63.55
2022-08-03T21:06:06.563Z,64.12
2022-08-03T21:09:05.503Z,60.79
2022-08-03T21:11:55.984Z,56.08
2022-08-03T21:13:07.322Z,59.69
2022-08-03T21:15:01.860Z,54.78
2022-08-03T21:17:54.882Z,55.64
2022-08-03T21:20:47.891Z,56.14
2022-08-03T21:23:48.682Z,56.68
2022-08-03T21:26:39.898Z,56.88
2022-08-03T21:29:28.768Z,57.55
2022-08-03T21:32:32.634Z,57.68
2022-08-03T21:35:23.943Z,57.65
2022-08-03T21:38:20.903Z,57.85
2022-08-03T21:41:20.706Z,58.36
2022-08-03T21:44:09.830Z,58.07
2022-08-03T21:47:00.183Z,58.32
2022-08-03T21:50:06.649Z,58.33
2022-08-03T21:52:59.447Z,57.87
2022-08-03T21:56:00.098Z,57.90
2022-08-03T21:59:00.120Z,57.71
2022-08-03T22:01:55.276Z,57.71
2022-08-03T22:04:53.223Z,57.45
2022-08-03T22:07:44.963Z,57.32
2022-08-03T22:10:32.975Z,56.99
2022-08-03T22:13:42.979Z,56.96
2022-08-03T22:16:30.587Z,56.81
2022-08-03T22:19:18.882Z,56.67
2022-08-03T22:22:13.811Z,56.56
2022-08-03T22:25:12.380Z,56.49
2022-08-03T22:28:10.269Z,56.38
2022-08-03T22:31:00.279Z,56.14
2022-08-03T22:34:08.273Z,56.15
2022-08-03T22:37:02.680Z,56.06
2022-08-03T22:39:51.386Z,55.93
2022-08-03T22:42:42.493Z,55.87
2022-08-03T22:46:06.404Z,55.84
2022-08-03T22:48:40.684Z,55.85
2022-08-03T22:51:30.464Z,55.87
2022-08-03T22:54:18.432Z,55.85
2022-08-03T22:57:07.702Z,55.86
2022-08-03T22:59:55.558Z,55.87
2022-08-03T23:02:48.770Z,55.78
2022-08-03T23:06:01.351Z,55.78
2022-08-03T23:08:47.093Z,55.74
2022-08-03T23:11:45.935Z,55.71
2022-08-03T23:14:38.946Z,55.70
2022-08-03T23:17:31.009Z,55.75
2022-08-03T23:20:20.293Z,55.74
2022-08-03T23:23:15.149Z,55.71
2022-08-03T23:26:08.635Z,55.68
2022-08-03T23:29:01.471Z,55.68
2022-08-03T23:31:50.026Z,55.52
2022-08-03T23:34:59.279Z,55.40
2022-08-03T23:38:04.471Z,55.20
2022-08-03T23:41:00.985Z,55.00
2022-08-03T23:43:54.043Z,54.75
2022-08-03T23:46:44.331Z,54.54
2022-08-03T23:49:32.954Z,54.41
2022-08-03T23:52:49.670Z,54.24
2022-08-03T23:56:11.613Z,54.07
2022-08-03T23:59:42.704Z,53.87
